sensor_id;sensor_type;location;lat;lon;timestamp;P1;durP1;ratioP1;P2;durP2;ratioP2
31730;SDS011;18310;55.586;12.286;2023-03-01T00:01:23;27.52;;;12.82;;
31730;SDS011;18310;55.586;12.286;2023-03-01T00:04:29;27.60;;;13.43;;
31730;SDS011;18310;55.586;12.286;2023-03-01T00:10:37;26.70;;;11.82;;
31730;SDS011;18310;55.586;12.286;2023-03-01T00:13:41;21.20;;;11.00;;
31730;SDS011;18310;55.586;12.286;2023-03-01T00:16:50;20.17;;;10.60;;
31730;SDS011;18310;55.586;12.286;2023-03-01T00:19:55;25.27;;;12.27;;
31730;SDS011;18310;55.586;12.286;2023-03-01T00:22:59;22.30;;;10.43;;
31730;SDS011;18310;55.586;12.286;2023-03-01T00:26:05;18.95;;;10.57;;
31730;SDS011;18310;55.586;12.286;2023-03-01T00:29:11;24.48;;;12.05;;
31730;SDS011;18310;55.586;12.286;2023-03-01T00:41:29;19.25;;;8.88;;
31730;SDS011;18310;55.586;12.286;2023-03-01T00:44:35;20.88;;;10.50;;
31730;SDS011;18310;55.586;12.286;2023-03-01T00:47:40;16.95;;;10.23;;
31730;SDS011;18310;55.586;12.286;2023-03-01T00:50:44;20.48;;;10.60;;
31730;SDS011;18310;55.586;12.286;2023-03-01T00:56:53;19.27;;;9.90;;
31730;SDS011;18310;55.586;12.286;2023-03-01T00:59:57;19.98;;;10.32;;
31730;SDS011;18310;55.586;12.286;2023-03-01T01:03:02;19.13;;;10.80;;
31730;SDS011;18310;55.586;12.286;2023-03-01T01:06:12;17.48;;;10.60;;
31730;SDS011;18310;55.586;12.286;2023-03-01T01:09:23;20.52;;;11.25;;
31730;SDS011;18310;55.586;12.286;2023-03-01T01:15:33;18.13;;;10.63;;
31730;SDS011;18310;55.586;12.286;2023-03-01T01:18:38;20.17;;;11.13;;
31730;SDS011;18310;55.586;12.286;2023-03-01T01:21:43;20.95;;;12.00;;
31730;SDS011;18310;55.586;12.286;2023-03-01T01:24:47;20.33;;;10.85;;
31730;SDS011;18310;55.586;12.286;2023-03-01T01:27:51;19.67;;;10.15;;
31730;SDS011;18310;55.586;12.286;2023-03-01T01:30:55;21.60;;;10.70;;
31730;SDS011;18310;55.586;12.286;2023-03-01T01:34:03;18.33;;;10.07;;
31730;SDS011;18310;55.586;12.286;2023-03-01T01:37:12;18.20;;;10.25;;
31730;SDS011;18310;55.586;12.286;2023-03-01T01:40:20;25.52;;;12.18;;
31730;SDS011;18310;55.586;12.286;2023-03-01T01:46:30;22.05;;;12.85;;
31730;SDS011;18310;55.586;12.286;2023-03-01T01:49:40;24.48;;;12.55;;
31730;SDS011;18310;55.586;12.286;2023-03-01T01:52:48;26.13;;;14.55;;
31730;SDS011;18310;55.586;12.286;2023-03-01T01:55:56;26.55;;;15.02;;
31730;SDS011;18310;55.586;12.286;2023-03-01T01:59:04;30.88;;;15.25;;
31730;SDS011;18310;55.586;12.286;2023-03-01T02:02:09;31.02;;;14.70;;
31730;SDS011;18310;55.586;12.286;2023-03-01T02:05:19;28.52;;;14.98;;
31730;SDS011;18310;55.586;12.286;2023-03-01T02:08:40;24.42;;;13.25;;
31730;SDS011;18310;55.586;12.286;2023-03-01T02:11:47;27.00;;;13.75;;
31730;SDS011;18310;55.586;12.286;2023-03-01T02:14:54;23.77;;;12.60;;
31730;SDS011;18310;55.586;12.286;2023-03-01T02:17:58;25.40;;;13.48;;
31730;SDS011;18310;55.586;12.286;2023-03-01T02:21:12;27.92;;;14.60;;
31730;SDS011;18310;55.586;12.286;2023-03-01T02:25:08;29.67;;;16.08;;
31730;SDS011;18310;55.586;12.286;2023-03-01T02:28:30;25.33;;;14.77;;
31730;SDS011;18310;55.586;12.286;2023-03-01T02:31:36;26.98;;;14.82;;
31730;SDS011;18310;55.586;12.286;2023-03-01T02:34:47;28.83;;;15.88;;
31730;SDS011;18310;55.586;12.286;2023-03-01T02:37:51;26.48;;;14.90;;
31730;SDS011;18310;55.586;12.286;2023-03-01T02:41:03;29.10;;;15.52;;
31730;SDS011;18310;55.586;12.286;2023-03-01T02:44:12;29.70;;;15.75;;
31730;SDS011;18310;55.586;12.286;2023-03-01T02:47:19;28.23;;;15.75;;
31730;SDS011;18310;55.586;12.286;2023-03-01T02:50:27;28.73;;;16.02;;
31730;SDS011;18310;55.586;12.286;2023-03-01T02:54:06;31.92;;;16.42;;
31730;SDS011;18310;55.586;12.286;2023-03-01T02:57:21;30.25;;;17.33;;
31730;SDS011;18310;55.586;12.286;2023-03-01T03:00:30;29.75;;;16.83;;
31730;SDS011;18310;55.586;12.286;2023-03-01T03:03:41;33.15;;;18.77;;
31730;SDS011;18310;55.586;12.286;2023-03-01T03:06:47;36.63;;;17.83;;
31730;SDS011;18310;55.586;12.286;2023-03-01T03:09:57;39.20;;;19.17;;
31730;SDS011;18310;55.586;12.286;2023-03-01T03:16:09;32.30;;;17.80;;
31730;SDS011;18310;55.586;12.286;2023-03-01T03:19:18;34.72;;;19.05;;
31730;SDS011;18310;55.586;12.286;2023-03-01T03:25:26;32.83;;;18.80;;
31730;SDS011;18310;55.586;12.286;2023-03-01T03:28:31;37.75;;;19.33;;
31730;SDS011;18310;55.586;12.286;2023-03-01T03:31:39;37.38;;;19.95;;
31730;SDS011;18310;55.586;12.286;2023-03-01T03:34:59;38.45;;;19.20;;
31730;SDS011;18310;55.586;12.286;2023-03-01T03:38:06;33.95;;;19.35;;
31730;SDS011;18310;55.586;12.286;2023-03-01T03:41:18;33.65;;;18.92;;
31730;SDS011;18310;55.586;12.286;2023-03-01T03:47:43;31.60;;;17.10;;
31730;SDS011;18310;55.586;12.286;2023-03-01T03:51:01;34.22;;;19.15;;
31730;SDS011;18310;55.586;12.286;2023-03-01T03:54:09;35.03;;;19.92;;
31730;SDS011;18310;55.586;12.286;2023-03-01T03:57:47;34.28;;;19.08;;
31730;SDS011;18310;55.586;12.286;2023-03-01T04:00:59;38.38;;;21.17;;
31730;SDS011;18310;55.586;12.286;2023-03-01T04:04:05;38.60;;;20.85;;
31730;SDS011;18310;55.586;12.286;2023-03-01T04:07:09;39.58;;;21.75;;
31730;SDS011;18310;55.586;12.286;2023-03-01T04:10:14;37.80;;;20.98;;
31730;SDS011;18310;55.586;12.286;2023-03-01T04:13:22;37.97;;;22.00;;
31730;SDS011;18310;55.586;12.286;2023-03-01T04:16:26;37.28;;;20.80;;
31730;SDS011;18310;55.586;12.286;2023-03-01T04:19:32;40.08;;;19.80;;
31730;SDS011;18310;55.586;12.286;2023-03-01T04:22:38;47.55;;;23.75;;
31730;SDS011;18310;55.586;12.286;2023-03-01T04:25:45;43.80;;;23.52;;
31730;SDS011;18310;55.586;12.286;2023-03-01T04:28:55;42.25;;;22.73;;
31730;SDS011;18310;55.586;12.286;2023-03-01T04:32:00;43.55;;;22.77;;
31730;SDS011;18310;55.586;12.286;2023-03-01T04:35:07;45.55;;;23.23;;
31730;SDS011;18310;55.586;12.286;2023-03-01T04:38:12;54.00;;;24.60;;
31730;SDS011;18310;55.586;12.286;2023-03-01T04:41:23;77.10;;;26.13;;
31730;SDS011;18310;55.586;12.286;2023-03-01T04:44:31;82.68;;;25.33;;
31730;SDS011;18310;55.586;12.286;2023-03-01T04:47:35;98.43;;;25.85;;
31730;SDS011;18310;55.586;12.286;2023-03-01T04:50:40;109.00;;;25.30;;
31730;SDS011;18310;55.586;12.286;2023-03-01T04:53:44;153.30;;;26.48;;
31730;SDS011;18310;55.586;12.286;2023-03-01T04:56:48;107.97;;;22.50;;
31730;SDS011;18310;55.586;12.286;2023-03-01T04:59:52;85.15;;;21.77;;
31730;SDS011;18310;55.586;12.286;2023-03-01T05:02:59;109.03;;;22.42;;
31730;SDS011;18310;55.586;12.286;2023-03-01T05:06:07;126.10;;;23.73;;
31730;SDS011;18310;55.586;12.286;2023-03-01T05:09:13;92.63;;;21.45;;
31730;SDS011;18310;55.586;12.286;2023-03-01T05:12:19;152.45;;;23.20;;
31730;SDS011;18310;55.586;12.286;2023-03-01T05:15:24;94.25;;;21.73;;
31730;SDS011;18310;55.586;12.286;2023-03-01T05:18:33;59.65;;;19.30;;
31730;SDS011;18310;55.586;12.286;2023-03-01T05:21:38;77.68;;;19.05;;
31730;SDS011;18310;55.586;12.286;2023-03-01T05:25:04;43.15;;;19.17;;
31730;SDS011;18310;55.586;12.286;2023-03-01T05:28:10;71.30;;;19.20;;
31730;SDS011;18310;55.586;12.286;2023-03-01T05:31:14;90.07;;;21.20;;
31730;SDS011;18310;55.586;12.286;2023-03-01T05:37:25;109.85;;;20.08;;
31730;SDS011;18310;55.586;12.286;2023-03-01T05:40:30;155.05;;;21.85;;
31730;SDS011;18310;55.586;12.286;2023-03-01T05:43:36;149.88;;;22.48;;
31730;SDS011;18310;55.586;12.286;2023-03-01T05:46:43;122.47;;;20.73;;
31730;SDS011;18310;55.586;12.286;2023-03-01T05:49:46;91.45;;;20.52;;
31730;SDS011;18310;55.586;12.286;2023-03-01T05:52:56;131.57;;;21.15;;
31730;SDS011;18310;55.586;12.286;2023-03-01T05:56:02;77.45;;;20.77;;
31730;SDS011;18310;55.586;12.286;2023-03-01T05:59:15;92.53;;;18.67;;
31730;SDS011;18310;55.586;12.286;2023-03-01T06:02:20;127.78;;;22.58;;
31730;SDS011;18310;55.586;12.286;2023-03-01T06:05:23;58.47;;;18.77;;
31730;SDS011;18310;55.586;12.286;2023-03-01T06:08:30;55.92;;;20.63;;
31730;SDS011;18310;55.586;12.286;2023-03-01T06:11:35;43.00;;;18.17;;
31730;SDS011;18310;55.586;12.286;2023-03-01T06:14:40;59.33;;;18.75;;
31730;SDS011;18310;55.586;12.286;2023-03-01T06:17:46;72.65;;;21.70;;
31730;SDS011;18310;55.586;12.286;2023-03-01T06:21:05;39.50;;;17.42;;
31730;SDS011;18310;55.586;12.286;2023-03-01T06:24:12;43.55;;;17.33;;
31730;SDS011;18310;55.586;12.286;2023-03-01T06:27:17;75.72;;;19.23;;
31730;SDS011;18310;55.586;12.286;2023-03-01T06:30:26;57.25;;;18.05;;
31730;SDS011;18310;55.586;12.286;2023-03-01T06:33:32;37.67;;;17.88;;
31730;SDS011;18310;55.586;12.286;2023-03-01T06:37:00;40.75;;;18.33;;
31730;SDS011;18310;55.586;12.286;2023-03-01T06:40:13;28.75;;;16.58;;
31730;SDS011;18310;55.586;12.286;2023-03-01T06:43:18;33.17;;;17.92;;
31730;SDS011;18310;55.586;12.286;2023-03-01T06:46:30;31.25;;;17.50;;
31730;SDS011;18310;55.586;12.286;2023-03-01T06:49:40;41.65;;;17.40;;
31730;SDS011;18310;55.586;12.286;2023-03-01T06:52:45;35.10;;;18.80;;
31730;SDS011;18310;55.586;12.286;2023-03-01T06:55:56;44.38;;;18.45;;
31730;SDS011;18310;55.586;12.286;2023-03-01T06:59:03;41.00;;;19.98;;
31730;SDS011;18310;55.586;12.286;2023-03-01T07:02:19;34.55;;;20.02;;
31730;SDS011;18310;55.586;12.286;2023-03-01T07:05:24;46.67;;;20.23;;
31730;SDS011;18310;55.586;12.286;2023-03-01T07:08:32;44.22;;;19.65;;
31730;SDS011;18310;55.586;12.286;2023-03-01T07:11:37;55.55;;;17.80;;
31730;SDS011;18310;55.586;12.286;2023-03-01T07:14:43;42.92;;;16.17;;
31730;SDS011;18310;55.586;12.286;2023-03-01T07:17:47;70.22;;;15.70;;
31730;SDS011;18310;55.586;12.286;2023-03-01T07:20:52;51.83;;;13.90;;
31730;SDS011;18310;55.586;12.286;2023-03-01T07:23:58;33.20;;;14.18;;
31730;SDS011;18310;55.586;12.286;2023-03-01T07:27:15;52.55;;;15.10;;
31730;SDS011;18310;55.586;12.286;2023-03-01T07:30:25;35.55;;;14.15;;
31730;SDS011;18310;55.586;12.286;2023-03-01T07:33:30;36.45;;;12.88;;
31730;SDS011;18310;55.586;12.286;2023-03-01T07:36:37;30.38;;;14.30;;
31730;SDS011;18310;55.586;12.286;2023-03-01T07:40:01;27.77;;;12.60;;
31730;SDS011;18310;55.586;12.286;2023-03-01T07:43:12;29.83;;;12.77;;
31730;SDS011;18310;55.586;12.286;2023-03-01T07:46:16;24.38;;;12.90;;
31730;SDS011;18310;55.586;12.286;2023-03-01T07:49:21;35.50;;;14.77;;
31730;SDS011;18310;55.586;12.286;2023-03-01T07:52:27;29.73;;;13.90;;
31730;SDS011;18310;55.586;12.286;2023-03-01T07:55:32;20.65;;;11.98;;
31730;SDS011;18310;55.586;12.286;2023-03-01T07:58:38;20.70;;;12.07;;
31730;SDS011;18310;55.586;12.286;2023-03-01T08:01:44;20.83;;;12.93;;
31730;SDS011;18310;55.586;12.286;2023-03-01T08:04:53;21.85;;;12.15;;
31730;SDS011;18310;55.586;12.286;2023-03-01T08:07:57;28.58;;;12.60;;
31730;SDS011;18310;55.586;12.286;2023-03-01T08:14:09;33.22;;;12.45;;
31730;SDS011;18310;55.586;12.286;2023-03-01T08:17:14;33.15;;;12.93;;
31730;SDS011;18310;55.586;12.286;2023-03-01T08:20:21;24.40;;;13.95;;
31730;SDS011;18310;55.586;12.286;2023-03-01T08:23:26;29.77;;;12.95;;
31730;SDS011;18310;55.586;12.286;2023-03-01T08:26:31;39.88;;;12.88;;
31730;SDS011;18310;55.586;12.286;2023-03-01T08:29:38;33.03;;;12.20;;
31730;SDS011;18310;55.586;12.286;2023-03-01T08:32:44;32.63;;;10.73;;
31730;SDS011;18310;55.586;12.286;2023-03-01T08:35:48;43.95;;;11.93;;
31730;SDS011;18310;55.586;12.286;2023-03-01T08:38:51;26.05;;;10.63;;
31730;SDS011;18310;55.586;12.286;2023-03-01T08:41:55;19.38;;;9.43;;
31730;SDS011;18310;55.586;12.286;2023-03-01T08:45:01;18.25;;;8.15;;
31730;SDS011;18310;55.586;12.286;2023-03-01T08:48:05;15.85;;;9.15;;
31730;SDS011;18310;55.586;12.286;2023-03-01T08:51:16;21.23;;;9.90;;
31730;SDS011;18310;55.586;12.286;2023-03-01T08:54:24;17.30;;;9.23;;
31730;SDS011;18310;55.586;12.286;2023-03-01T08:57:41;16.25;;;8.48;;
31730;SDS011;18310;55.586;12.286;2023-03-01T09:00:46;17.08;;;9.18;;
31730;SDS011;18310;55.586;12.286;2023-03-01T09:03:49;16.90;;;8.55;;
31730;SDS011;18310;55.586;12.286;2023-03-01T09:06:55;15.00;;;8.45;;
31730;SDS011;18310;55.586;12.286;2023-03-01T09:13:06;12.35;;;7.30;;
31730;SDS011;18310;55.586;12.286;2023-03-01T09:16:17;11.45;;;7.15;;
31730;SDS011;18310;55.586;12.286;2023-03-01T09:19:23;13.75;;;7.95;;
31730;SDS011;18310;55.586;12.286;2023-03-01T09:22:30;13.90;;;8.13;;
31730;SDS011;18310;55.586;12.286;2023-03-01T09:25:35;13.20;;;7.32;;
31730;SDS011;18310;55.586;12.286;2023-03-01T09:31:50;12.13;;;6.32;;
31730;SDS011;18310;55.586;12.286;2023-03-01T09:35:01;11.13;;;6.35;;
31730;SDS011;18310;55.586;12.286;2023-03-01T09:38:45;11.70;;;6.90;;
31730;SDS011;18310;55.586;12.286;2023-03-01T09:42:30;12.75;;;7.78;;
31730;SDS011;18310;55.586;12.286;2023-03-01T09:46:10;15.65;;;7.97;;
31730;SDS011;18310;55.586;12.286;2023-03-01T09:49:29;10.88;;;6.97;;
31730;SDS011;18310;55.586;12.286;2023-03-01T09:52:47;12.32;;;6.63;;
31730;SDS011;18310;55.586;12.286;2023-03-01T09:56:32;14.00;;;7.00;;
31730;SDS011;18310;55.586;12.286;2023-03-01T10:00:32;9.40;;;5.63;;
31730;SDS011;18310;55.586;12.286;2023-03-01T10:03:58;10.68;;;5.40;;
31730;SDS011;18310;55.586;12.286;2023-03-01T10:07:38;10.57;;;5.75;;
31730;SDS011;18310;55.586;12.286;2023-03-01T10:10:52;10.55;;;5.75;;
31730;SDS011;18310;55.586;12.286;2023-03-01T10:14:03;9.13;;;5.18;;
31730;SDS011;18310;55.586;12.286;2023-03-01T10:17:20;10.80;;;5.55;;
31730;SDS011;18310;55.586;12.286;2023-03-01T10:20:37;10.38;;;6.15;;
31730;SDS011;18310;55.586;12.286;2023-03-01T10:23:55;12.13;;;7.18;;
31730;SDS011;18310;55.586;12.286;2023-03-01T10:27:12;9.35;;;6.10;;
31730;SDS011;18310;55.586;12.286;2023-03-01T10:30:29;12.52;;;6.70;;
31730;SDS011;18310;55.586;12.286;2023-03-01T10:33:39;12.52;;;6.78;;
31730;SDS011;18310;55.586;12.286;2023-03-01T10:36:47;14.38;;;7.13;;
31730;SDS011;18310;55.586;12.286;2023-03-01T10:39:57;11.30;;;6.32;;
31730;SDS011;18310;55.586;12.286;2023-03-01T10:43:11;15.02;;;7.60;;
31730;SDS011;18310;55.586;12.286;2023-03-01T10:46:24;11.48;;;6.63;;
31730;SDS011;18310;55.586;12.286;2023-03-01T10:49:31;15.32;;;7.05;;
31730;SDS011;18310;55.586;12.286;2023-03-01T10:52:40;14.05;;;6.40;;
31730;SDS011;18310;55.586;12.286;2023-03-01T10:56:03;12.40;;;6.63;;
31730;SDS011;18310;55.586;12.286;2023-03-01T10:59:19;11.05;;;6.43;;
31730;SDS011;18310;55.586;12.286;2023-03-01T11:02:30;13.40;;;6.43;;
31730;SDS011;18310;55.586;12.286;2023-03-01T11:09:17;10.10;;;5.78;;
31730;SDS011;18310;55.586;12.286;2023-03-01T11:12:26;11.40;;;6.25;;
31730;SDS011;18310;55.586;12.286;2023-03-01T11:15:39;16.55;;;6.10;;
31730;SDS011;18310;55.586;12.286;2023-03-01T11:19:18;17.33;;;6.68;;
31730;SDS011;18310;55.586;12.286;2023-03-01T11:22:24;11.77;;;6.20;;
31730;SDS011;18310;55.586;12.286;2023-03-01T11:25:29;11.93;;;6.13;;
31730;SDS011;18310;55.586;12.286;2023-03-01T11:28:39;10.57;;;5.65;;
31730;SDS011;18310;55.586;12.286;2023-03-01T11:31:50;11.13;;;5.57;;
31730;SDS011;18310;55.586;12.286;2023-03-01T11:35:01;10.15;;;5.88;;
31730;SDS011;18310;55.586;12.286;2023-03-01T11:38:17;12.48;;;6.45;;
31730;SDS011;18310;55.586;12.286;2023-03-01T11:41:27;11.00;;;6.75;;
31730;SDS011;18310;55.586;12.286;2023-03-01T11:44:45;17.27;;;7.03;;
31730;SDS011;18310;55.586;12.286;2023-03-01T11:48:00;9.30;;;5.95;;
31730;SDS011;18310;55.586;12.286;2023-03-01T11:51:22;11.95;;;6.03;;
31730;SDS011;18310;55.586;12.286;2023-03-01T11:54:43;12.43;;;5.28;;
31730;SDS011;18310;55.586;12.286;2023-03-01T12:01:54;11.18;;;6.68;;
31730;SDS011;18310;55.586;12.286;2023-03-01T12:05:46;14.15;;;6.75;;
31730;SDS011;18310;55.586;12.286;2023-03-01T12:09:39;12.05;;;6.13;;
31730;SDS011;18310;55.586;12.286;2023-03-01T12:13:04;12.48;;;6.65;;
31730;SDS011;18310;55.586;12.286;2023-03-01T12:16:59;11.77;;;6.78;;
31730;SDS011;18310;55.586;12.286;2023-03-01T12:20:32;11.13;;;6.20;;
31730;SDS011;18310;55.586;12.286;2023-03-01T12:24:02;11.27;;;6.93;;
31730;SDS011;18310;55.586;12.286;2023-03-01T12:31:48;10.70;;;6.43;;
31730;SDS011;18310;55.586;12.286;2023-03-01T12:35:33;10.40;;;5.85;;
31730;SDS011;18310;55.586;12.286;2023-03-01T12:38:59;10.77;;;6.70;;
31730;SDS011;18310;55.586;12.286;2023-03-01T12:42:22;11.85;;;6.55;;
31730;SDS011;18310;55.586;12.286;2023-03-01T12:45:47;14.00;;;6.00;;
31730;SDS011;18310;55.586;12.286;2023-03-01T12:49:20;12.80;;;6.13;;
31730;SDS011;18310;55.586;12.286;2023-03-01T12:52:33;8.55;;;5.40;;
31730;SDS011;18310;55.586;12.286;2023-03-01T12:55:43;13.02;;;5.45;;
31730;SDS011;18310;55.586;12.286;2023-03-01T12:58:51;8.23;;;4.97;;
31730;SDS011;18310;55.586;12.286;2023-03-01T13:02:09;8.68;;;4.28;;
31730;SDS011;18310;55.586;12.286;2023-03-01T13:05:26;11.55;;;4.43;;
31730;SDS011;18310;55.586;12.286;2023-03-01T13:08:42;9.05;;;5.00;;
31730;SDS011;18310;55.586;12.286;2023-03-01T13:11:56;8.55;;;3.85;;
31730;SDS011;18310;55.586;12.286;2023-03-01T13:15:03;7.93;;;4.10;;
31730;SDS011;18310;55.586;12.286;2023-03-01T13:18:28;6.28;;;3.97;;
31730;SDS011;18310;55.586;12.286;2023-03-01T13:21:36;7.35;;;4.05;;
31730;SDS011;18310;55.586;12.286;2023-03-01T13:24:40;7.95;;;3.75;;
31730;SDS011;18310;55.586;12.286;2023-03-01T13:27:45;7.20;;;3.60;;
31730;SDS011;18310;55.586;12.286;2023-03-01T13:30:49;5.88;;;3.28;;
31730;SDS011;18310;55.586;12.286;2023-03-01T13:33:53;5.70;;;3.60;;
31730;SDS011;18310;55.586;12.286;2023-03-01T13:44:06;6.50;;;3.47;;
31730;SDS011;18310;55.586;12.286;2023-03-01T13:47:21;8.80;;;3.60;;
31730;SDS011;18310;55.586;12.286;2023-03-01T13:50:25;8.05;;;3.55;;
31730;SDS011;18310;55.586;12.286;2023-03-01T13:53:39;9.43;;;4.30;;
31730;SDS011;18310;55.586;12.286;2023-03-01T13:56:49;5.32;;;2.97;;
31730;SDS011;18310;55.586;12.286;2023-03-01T13:59:53;6.40;;;3.53;;
31730;SDS011;18310;55.586;12.286;2023-03-01T14:03:01;5.75;;;3.38;;
31730;SDS011;18310;55.586;12.286;2023-03-01T14:06:09;6.43;;;3.50;;
31730;SDS011;18310;55.586;12.286;2023-03-01T14:09:23;6.88;;;3.60;;
31730;SDS011;18310;55.586;12.286;2023-03-01T14:12:38;5.57;;;3.50;;
31730;SDS011;18310;55.586;12.286;2023-03-01T14:15:57;5.10;;;3.13;;
31730;SDS011;18310;55.586;12.286;2023-03-01T14:19:21;6.82;;;3.17;;
31730;SDS011;18310;55.586;12.286;2023-03-01T14:22:34;4.60;;;2.55;;
31730;SDS011;18310;55.586;12.286;2023-03-01T14:25:47;4.85;;;2.50;;
31730;SDS011;18310;55.586;12.286;2023-03-01T14:28:54;5.03;;;2.67;;
31730;SDS011;18310;55.586;12.286;2023-03-01T14:32:08;3.78;;;2.10;;
31730;SDS011;18310;55.586;12.286;2023-03-01T14:35:20;3.75;;;2.08;;
31730;SDS011;18310;55.586;12.286;2023-03-01T14:38:30;5.10;;;2.60;;
31730;SDS011;18310;55.586;12.286;2023-03-01T14:41:40;5.85;;;2.55;;
31730;SDS011;18310;55.586;12.286;2023-03-01T14:44:44;4.20;;;2.30;;
31730;SDS011;18310;55.586;12.286;2023-03-01T14:47:53;4.32;;;1.92;;
31730;SDS011;18310;55.586;12.286;2023-03-01T14:51:09;5.90;;;2.20;;
31730;SDS011;18310;55.586;12.286;2023-03-01T14:54:20;4.72;;;2.22;;
31730;SDS011;18310;55.586;12.286;2023-03-01T14:57:32;7.63;;;2.10;;
31730;SDS011;18310;55.586;12.286;2023-03-01T15:00:55;5.03;;;2.05;;
31730;SDS011;18310;55.586;12.286;2023-03-01T15:04:04;4.43;;;2.10;;
31730;SDS011;18310;55.586;12.286;2023-03-01T15:07:16;4.97;;;1.95;;
31730;SDS011;18310;55.586;12.286;2023-03-01T15:10:22;3.65;;;1.92;;
31730;SDS011;18310;55.586;12.286;2023-03-01T15:13:32;4.43;;;1.63;;
31730;SDS011;18310;55.586;12.286;2023-03-01T15:16:38;3.20;;;1.48;;
31730;SDS011;18310;55.586;12.286;2023-03-01T15:19:48;3.20;;;1.45;;
31730;SDS011;18310;55.586;12.286;2023-03-01T15:22:54;4.50;;;1.65;;
31730;SDS011;18310;55.586;12.286;2023-03-01T15:26:00;2.53;;;1.30;;
31730;SDS011;18310;55.586;12.286;2023-03-01T15:29:15;3.63;;;1.30;;
31730;SDS011;18310;55.586;12.286;2023-03-01T15:32:36;4.07;;;1.48;;
31730;SDS011;18310;55.586;12.286;2023-03-01T15:35:50;2.70;;;1.20;;
31730;SDS011;18310;55.586;12.286;2023-03-01T15:39:03;6.82;;;1.70;;
31730;SDS011;18310;55.586;12.286;2023-03-01T15:42:39;3.45;;;1.30;;
31730;SDS011;18310;55.586;12.286;2023-03-01T15:45:56;5.70;;;1.60;;
31730;SDS011;18310;55.586;12.286;2023-03-01T15:49:05;5.80;;;1.10;;
31730;SDS011;18310;55.586;12.286;2023-03-01T15:52:55;3.83;;;0.90;;
31730;SDS011;18310;55.586;12.286;2023-03-01T15:56:11;2.40;;;1.00;;
31730;SDS011;18310;55.586;12.286;2023-03-01T15:59:21;3.75;;;1.23;;
31730;SDS011;18310;55.586;12.286;2023-03-01T16:02:49;3.05;;;1.13;;
31730;SDS011;18310;55.586;12.286;2023-03-01T16:05:55;2.75;;;0.80;;
31730;SDS011;18310;55.586;12.286;2023-03-01T16:09:12;6.60;;;1.80;;
31730;SDS011;18310;55.586;12.286;2023-03-01T16:12:21;3.28;;;1.30;;
31730;SDS011;18310;55.586;12.286;2023-03-01T16:15:38;2.35;;;0.93;;
31730;SDS011;18310;55.586;12.286;2023-03-01T16:18:50;2.25;;;1.00;;
31730;SDS011;18310;55.586;12.286;2023-03-01T16:21:56;2.53;;;1.20;;
31730;SDS011;18310;55.586;12.286;2023-03-01T16:25:06;2.33;;;1.10;;
31730;SDS011;18310;55.586;12.286;2023-03-01T16:28:11;7.30;;;3.38;;
31730;SDS011;18310;55.586;12.286;2023-03-01T16:31:17;7.05;;;2.42;;
31730;SDS011;18310;55.586;12.286;2023-03-01T16:34:24;3.63;;;1.73;;
31730;SDS011;18310;55.586;12.286;2023-03-01T16:37:32;6.57;;;1.23;;
31730;SDS011;18310;55.586;12.286;2023-03-01T16:40:38;4.82;;;1.63;;
31730;SDS011;18310;55.586;12.286;2023-03-01T16:43:42;12.77;;;1.80;;
31730;SDS011;18310;55.586;12.286;2023-03-01T16:46:49;3.72;;;2.00;;
31730;SDS011;18310;55.586;12.286;2023-03-01T16:50:00;5.75;;;2.50;;
31730;SDS011;18310;55.586;12.286;2023-03-01T16:53:17;4.05;;;2.20;;
31730;SDS011;18310;55.586;12.286;2023-03-01T16:56:24;3.00;;;1.50;;
31730;SDS011;18310;55.586;12.286;2023-03-01T17:02:51;4.28;;;1.17;;
31730;SDS011;18310;55.586;12.286;2023-03-01T17:06:17;2.63;;;1.05;;
31730;SDS011;18310;55.586;12.286;2023-03-01T17:09:34;3.38;;;0.98;;
31730;SDS011;18310;55.586;12.286;2023-03-01T17:12:53;2.85;;;1.17;;
31730;SDS011;18310;55.586;12.286;2023-03-01T17:15:57;4.13;;;1.38;;
31730;SDS011;18310;55.586;12.286;2023-03-01T17:19:01;9.50;;;2.40;;
31730;SDS011;18310;55.586;12.286;2023-03-01T17:22:06;5.13;;;1.73;;
31730;SDS011;18310;55.586;12.286;2023-03-01T17:25:10;5.30;;;1.60;;
31730;SDS011;18310;55.586;12.286;2023-03-01T17:28:14;4.13;;;1.40;;
31730;SDS011;18310;55.586;12.286;2023-03-01T17:31:18;5.80;;;1.60;;
31730;SDS011;18310;55.586;12.286;2023-03-01T17:34:23;4.13;;;1.60;;
31730;SDS011;18310;55.586;12.286;2023-03-01T17:37:30;5.05;;;1.70;;
31730;SDS011;18310;55.586;12.286;2023-03-01T17:40:40;3.85;;;1.80;;
31730;SDS011;18310;55.586;12.286;2023-03-01T17:43:57;5.47;;;1.88;;
31730;SDS011;18310;55.586;12.286;2023-03-01T17:47:01;3.17;;;1.48;;
31730;SDS011;18310;55.586;12.286;2023-03-01T17:50:11;4.10;;;1.60;;
31730;SDS011;18310;55.586;12.286;2023-03-01T17:53:16;4.32;;;2.15;;
31730;SDS011;18310;55.586;12.286;2023-03-01T17:56:22;5.95;;;2.03;;
31730;SDS011;18310;55.586;12.286;2023-03-01T17:59:27;3.58;;;1.95;;
31730;SDS011;18310;55.586;12.286;2023-03-01T18:02:36;4.50;;;2.17;;
31730;SDS011;18310;55.586;12.286;2023-03-01T18:05:40;5.90;;;2.33;;
31730;SDS011;18310;55.586;12.286;2023-03-01T18:08:46;4.45;;;2.63;;
31730;SDS011;18310;55.586;12.286;2023-03-01T18:11:52;4.97;;;2.50;;
31730;SDS011;18310;55.586;12.286;2023-03-01T18:14:56;6.50;;;2.78;;
31730;SDS011;18310;55.586;12.286;2023-03-01T18:18:01;4.95;;;2.80;;
31730;SDS011;18310;55.586;12.286;2023-03-01T18:21:05;6.35;;;3.33;;
31730;SDS011;18310;55.586;12.286;2023-03-01T18:24:12;14.60;;;3.67;;
31730;SDS011;18310;55.586;12.286;2023-03-01T18:27:15;8.65;;;3.60;;
31730;SDS011;18310;55.586;12.286;2023-03-01T18:30:19;8.25;;;3.72;;
31730;SDS011;18310;55.586;12.286;2023-03-01T18:36:32;7.95;;;3.75;;
31730;SDS011;18310;55.586;12.286;2023-03-01T18:39:49;6.57;;;3.05;;
31730;SDS011;18310;55.586;12.286;2023-03-01T18:42:59;10.70;;;3.45;;
31730;SDS011;18310;55.586;12.286;2023-03-01T18:46:03;7.60;;;3.17;;
31730;SDS011;18310;55.586;12.286;2023-03-01T18:49:07;7.00;;;3.10;;
31730;SDS011;18310;55.586;12.286;2023-03-01T18:52:12;7.35;;;3.30;;
31730;SDS011;18310;55.586;12.286;2023-03-01T18:55:19;7.78;;;3.30;;
31730;SDS011;18310;55.586;12.286;2023-03-01T18:58:23;6.47;;;3.03;;
31730;SDS011;18310;55.586;12.286;2023-03-01T19:01:31;6.53;;;3.22;;
31730;SDS011;18310;55.586;12.286;2023-03-01T19:04:38;5.45;;;2.55;;
31730;SDS011;18310;55.586;12.286;2023-03-01T19:07:48;6.50;;;2.60;;
31730;SDS011;18310;55.586;12.286;2023-03-01T19:11:16;9.07;;;3.22;;
31730;SDS011;18310;55.586;12.286;2023-03-01T19:14:20;6.85;;;3.20;;
31730;SDS011;18310;55.586;12.286;2023-03-01T19:17:26;5.97;;;3.40;;
31730;SDS011;18310;55.586;12.286;2023-03-01T19:20:34;10.40;;;5.15;;
31730;SDS011;18310;55.586;12.286;2023-03-01T19:23:42;7.88;;;4.03;;
31730;SDS011;18310;55.586;12.286;2023-03-01T19:26:48;10.30;;;4.38;;
31730;SDS011;18310;55.586;12.286;2023-03-01T19:29:54;9.40;;;4.60;;
31730;SDS011;18310;55.586;12.286;2023-03-01T19:32:59;7.03;;;4.80;;
31730;SDS011;18310;55.586;12.286;2023-03-01T19:36:03;8.90;;;4.18;;
31730;SDS011;18310;55.586;12.286;2023-03-01T19:39:09;8.73;;;4.80;;
31730;SDS011;18310;55.586;12.286;2023-03-01T19:42:17;10.23;;;4.55;;
31730;SDS011;18310;55.586;12.286;2023-03-01T19:45:24;11.48;;;4.88;;